Time;durP1;ratioP1;P1;durP2;ratioP2;P2;SDS_P1;SDS_P2;PMS_P1;PMS_P2;Temp;Humidity;BMP_temperature;BMP_pressure;BME280_temperature;BME280_humidity;BME280_pressure;Samples;Min_cycle;Max_cycle;Signal;HPM_P1;HPM_P2
2021/06/12 00:01:17;;;;;;;5.60;5.30;;;;;;;13.56;96.20;95899.06;5089049;28;20624;-68
2021/06/12 00:03:45;;;;;;;7.13;6.73;;;;;;;13.54;96.41;95891.31;5083337;28;20219;-68
2021/06/12 00:06:12;;;;;;;6.23;5.93;;;;;;;13.57;96.63;95890.09;5076953;28;20309;-68
2021/06/12 00:08:41;;;;;;;6.83;6.43;;;;;;;13.56;96.73;95896.41;5071904;28;20297;-68
2021/06/12 00:11:08;;;;;;;6.87;6.27;;;;;;;13.55;96.69;95889.47;5065911;28;20813;-68
2021/06/12 00:13:36;;;;;;;7.03;6.57;;;;;;;13.55;96.58;95898.25;5102026;27;20274;-68
2021/06/12 00:16:04;;;;;;;7.80;7.17;;;;;;;13.57;96.48;95890.91;5076344;28;20233;-68
2021/06/12 00:18:32;;;;;;;7.63;7.17;;;;;;;13.52;96.47;95889.84;5075180;28;20708;-68
2021/06/12 00:21:00;;;;;;;5.97;5.67;;;;;;;13.52;96.36;95888.00;5082945;28;20206;-68
2021/06/12 00:23:28;;;;;;;7.17;6.67;;;;;;;13.46;96.41;95888.00;5078964;28;20791;-68
2021/06/12 00:25:57;;;;;;;9.97;7.87;;;;;;;13.37;96.19;95885.50;5076026;28;20853;-68
2021/06/12 00:28:24;;;;;;;8.07;7.30;;;;;;;13.33;95.92;95889.53;5070866;28;20309;-68
2021/06/12 00:30:52;;;;;;;7.20;6.73;;;;;;;13.37;95.82;95890.00;5079316;28;20303;-68
2021/06/12 00:33:19;;;;;;;6.43;6.03;;;;;;;13.37;95.51;95885.50;5074138;28;20225;-68
2021/06/12 00:35:46;;;;;;;11.50;6.57;;;;;;;13.37;95.42;95888.16;5082521;28;20770;-68
2021/06/12 00:38:14;;;;;;;7.63;7.13;;;;;;;13.34;95.55;95879.75;5071143;28;20328;-68
2021/06/12 00:40:42;;;;;;;6.27;5.87;;;;;;;13.34;95.64;95882.41;5081074;28;20278;-68
2021/06/12 00:43:11;;;;;;;7.13;6.63;;;;;;;13.27;95.63;95884.22;5076044;28;20230;-68
2021/06/12 00:45:39;;;;;;;6.30;5.90;;;;;;;13.22;95.79;95887.44;5068131;28;20320;-68
2021/06/12 00:48:07;;;;;;;6.40;5.90;;;;;;;13.20;96.11;95886.81;5070586;28;20234;-68
2021/06/12 00:50:35;;;;;;;7.67;7.27;;;;;;;13.17;96.13;95884.53;5084013;28;20312;-68
2021/06/12 00:53:06;;;;;;;5.97;5.47;;;;;;;13.10;95.88;95884.50;5073494;28;20239;-68
2021/06/12 00:55:34;;;;;;;5.67;5.37;;;;;;;13.06;95.80;95882.41;5081739;28;20308;-68
2021/06/12 00:58:02;;;;;;;5.80;5.40;;;;;;;13.04;96.08;95889.75;5077905;28;20678;-68
2021/06/12 01:00:30;;;;;;;6.50;5.90;;;;;;;13.02;95.83;95891.78;5084413;28;20310;-68
2021/06/12 01:02:58;;;;;;;7.00;6.50;;;;;;;12.96;95.82;95895.19;5067220;28;20237;-68
2021/06/12 01:05:26;;;;;;;7.43;6.83;;;;;;;12.87;96.33;95888.38;5073587;28;20222;-68
2021/06/12 01:07:54;;;;;;;7.80;7.20;;;;;;;12.80;96.58;95889.19;5077280;28;20330;-68
2021/06/12 01:10:22;;;;;;;6.03;5.53;;;;;;;12.82;96.64;95887.16;5076844;28;20223;-68
2021/06/12 01:12:57;;;;;;;8.57;8.03;;;;;;;12.85;96.72;95890.41;5067271;28;20271;-68
2021/06/12 01:15:29;;;;;;;7.03;6.53;;;;;;;12.85;96.80;95885.94;5076281;28;20225;-68
2021/06/12 01:18:02;;;;;;;6.00;5.70;;;;;;;12.86;96.47;95886.75;5084405;28;20533;-68
2021/06/12 01:20:52;;;;;;;6.43;6.03;;;;;;;12.88;96.64;95884.72;5071095;28;20610;-68
2021/06/12 01:24:03;;;;;;;6.80;6.40;;;;;;;12.89;96.62;95883.72;5066436;28;20218;-67
2021/06/12 01:27:27;;;;;;;5.70;5.20;;;;;;;12.89;96.65;95878.41;5075668;28;20713;-68
2021/06/12 01:30:10;;;;;;;5.33;5.07;;;;;;;12.87;96.36;95875.97;5016691;28;20380;-68
2021/06/12 01:32:40;;;;;;;6.80;6.30;;;;;;;12.86;96.46;95876.16;5069210;28;20394;-68
2021/06/12 01:35:14;;;;;;;7.60;6.87;;;;;;;12.82;96.72;95871.25;5083203;28;20229;-68
2021/06/12 01:37:44;;;;;;;8.10;7.60;;;;;;;12.78;96.75;95869.16;5083523;28;20221;-70
2021/06/12 01:40:15;;;;;;;5.97;5.57;;;;;;;12.77;96.56;95868.34;5093881;28;20781;-71
2021/06/12 01:42:47;;;;;;;7.97;7.13;;;;;;;12.77;96.56;95856.94;5080620;28;20309;-71
2021/06/12 01:45:17;;;;;;;5.83;5.53;;;;;;;12.76;96.45;95856.13;5084945;28;20730;-71
2021/06/12 01:47:45;;;;;;;5.63;5.33;;;;;;;12.78;96.46;95862.03;5086572;28;20638;-71
2021/06/12 01:50:15;;;;;;;5.97;5.67;;;;;;;12.77;96.38;95863.06;5077856;28;20235;-70
2021/06/12 01:52:45;;;;;;;7.47;7.07;;;;;;;12.77;96.50;95863.06;5088097;28;20228;-71
2021/06/12 01:55:16;;;;;;;7.03;6.63;;;;;;;12.76;96.66;95866.72;5070416;28;20233;-71
2021/06/12 01:57:45;;;;;;;7.40;7.00;;;;;;;12.76;96.64;95856.13;5073786;28;20287;-71
2021/06/12 02:00:14;;;;;;;7.50;6.90;;;;;;;12.76;97.00;95861.41;5080103;28;20740;-71
2021/06/12 02:02:45;;;;;;;7.63;6.93;;;;;;;12.75;96.76;95857.13;5079794;28;20649;-71
2021/06/12 02:05:16;;;;;;;5.83;5.50;;;;;;;12.76;96.80;95855.31;5074820;28;20218;-71
2021/06/12 02:07:46;;;;;;;6.67;6.17;;;;;;;12.75;96.77;95849.19;5081902;28;20304;-70
2021/06/12 02:10:19;;;;;;;5.83;5.47;;;;;;;12.73;96.88;95855.69;5074872;28;20219;-71
2021/06/12 02:12:46;;;;;;;6.07;5.77;;;;;;;12.74;96.91;95849.41;5079834;28;20231;-71
2021/06/12 02:15:14;;;;;;;5.43;5.13;;;;;;;12.73;97.53;95861.00;5084206;28;20256;-71
2021/06/12 02:17:43;;;;;;;6.13;5.80;;;;;;;12.69;97.14;95860.53;5082342;28;20923;-71
2021/06/12 02:20:13;;;;;;;6.77;6.23;;;;;;;12.72;96.96;95865.47;5070222;28;20291;-71
2021/06/12 02:22:44;;;;;;;6.67;6.30;;;;;;;12.70;96.95;95864.81;5078808;28;20662;-71
2021/06/12 02:25:13;;;;;;;6.63;6.23;;;;;;;12.61;97.15;95863.31;5086622;28;20225;-71
2021/06/12 02:27:46;;;;;;;11.50;7.03;;;;;;;12.61;97.26;95865.97;5085788;28;20314;-71
2021/06/12 02:30:15;;;;;;;6.83;6.37;;;;;;;12.58;97.10;95863.72;5083361;28;20811;-71
2021/06/12 02:32:47;;;;;;;7.17;6.57;;;;;;;12.58;97.24;95863.72;5080823;28;20272;-70
2021/06/12 02:35:15;;;;;;;7.17;6.63;;;;;;;12.51;97.23;95854.91;5083522;28;20273;-71
2021/06/12 02:37:44;;;;;;;6.87;6.37;;;;;;;12.48;97.37;95864.03;5081732;28;20245;-71
2021/06/12 02:40:12;;;;;;;6.60;5.97;;;;;;;12.48;97.37;95863.22;5075950;28;20318;-70
2021/06/12 02:42:39;;;;;;;6.00;5.70;;;;;;;12.49;97.60;95860.38;5073289;28;20248;-70
2021/06/12 02:45:10;;;;;;;7.80;7.10;;;;;;;12.49;97.59;95862.22;5065695;28;20222;-70
2021/06/12 02:47:44;;;;;;;6.60;6.20;;;;;;;12.55;97.60;95863.28;5065490;28;20226;-70
2021/06/12 02:50:14;;;;;;;6.97;6.57;;;;;;;12.55;97.74;95858.81;5082727;28;20240;-70
2021/06/12 02:52:44;;;;;;;7.53;7.03;;;;;;;12.55;97.52;95858.81;5078698;28;20247;-69
2021/06/12 02:55:14;;;;;;;5.13;4.83;;;;;;;12.57;97.40;95856.78;5071940;28;20237;-69
2021/06/12 02:57:46;;;;;;;5.63;5.23;;;;;;;12.56;97.38;95852.50;5077860;28;20232;-69
2021/06/12 03:00:14;;;;;;;6.43;6.03;;;;;;;12.60;97.34;95856.41;5082529;28;20632;-69
2021/06/12 03:02:44;;;;;;;6.37;5.80;;;;;;;12.59;97.34;95857.41;5085753;28;20216;-69
2021/06/12 03:05:16;;;;;;;6.57;6.07;;;;;;;12.60;97.22;95856.41;5069998;28;20238;-69
2021/06/12 03:07:47;;;;;;;5.60;5.23;;;;;;;12.63;97.08;95852.56;5086742;28;20851;-69
2021/06/12 03:10:16;;;;;;;6.40;5.93;;;;;;;12.66;97.20;95868.88;5075888;28;20222;-69
2021/06/12 03:12:47;;;;;;;7.63;6.90;;;;;;;12.67;97.08;95859.09;5067604;28;20934;-69
2021/06/12 03:15:16;;;;;;;5.57;5.27;;;;;;;12.69;97.10;95860.53;5083222;28;20278;-69
2021/06/12 03:17:45;;;;;;;6.47;6.07;;;;;;;12.68;96.94;95861.56;5083250;28;20232;-69
2021/06/12 03:20:16;;;;;;;6.00;5.27;;;;;;;12.65;97.17;95856.66;5077165;28;22570;-69
2021/06/12 03:22:45;;;;;;;6.43;6.03;;;;;;;12.66;97.16;95860.94;5074083;28;20752;-69
2021/06/12 03:25:14;;;;;;;8.57;7.77;;;;;;;12.67;97.29;95867.06;5090429;28;20248;-69
2021/06/12 03:27:42;;;;;;;5.90;5.50;;;;;;;12.72;97.33;95864.66;5078894;28;20249;-69
2021/06/12 03:30:11;;;;;;;6.00;5.40;;;;;;;12.76;96.88;95871.19;5080567;28;20211;-69
2021/06/12 03:32:38;;;;;;;5.47;5.17;;;;;;;12.80;96.69;95864.50;5082057;28;20327;-69
2021/06/12 03:35:08;;;;;;;7.27;6.77;;;;;;;12.82;96.37;95865.97;5080410;28;20213;-69
2021/06/12 03:37:39;;;;;;;5.93;5.60;;;;;;;12.87;96.44;95868.00;5093013;28;20317;-69
2021/06/12 03:40:08;;;;;;;5.70;5.40;;;;;;;12.91;96.21;95866.63;5082055;28;20880;-69
2021/06/12 03:42:36;;;;;;;5.20;4.90;;;;;;;12.97;95.95;95872.97;5065604;28;20222;-69
2021/06/12 03:45:07;;;;;;;6.87;6.37;;;;;;;12.92;95.61;95865.63;5074094;28;20740;-69
2021/06/12 03:47:35;;;;;;;6.30;5.90;;;;;;;12.94;95.71;95878.66;5079178;28;20311;-69
2021/06/12 03:50:04;;;;;;;5.40;5.00;;;;;;;12.94;95.55;95876.84;5069060;28;20222;-69
2021/06/12 03:52:33;;;;;;;6.10;5.80;;;;;;;13.01;95.36;95879.53;5067048;28;20569;-69
2021/06/12 03:55:05;;;;;;;6.67;6.00;;;;;;;13.06;95.01;95874.47;5079940;28;20815;-69
2021/06/12 03:57:34;;;;;;;5.77;5.47;;;;;;;13.05;94.74;95878.13;5080160;28;20226;-69
2021/06/12 04:00:06;;;;;;;4.87;4.57;;;;;;;13.02;94.80;95881.16;5079776;28;20926;-69
2021/06/12 04:02:42;;;;;;;5.43;4.93;;;;;;;13.03;95.01;95873.03;5081752;28;20221;-69
2021/06/12 04:05:10;;;;;;;6.37;5.67;;;;;;;13.03;94.98;95877.50;5072806;28;20323;-69
2021/06/12 04:07:38;;;;;;;6.03;5.73;;;;;;;13.01;94.89;95885.66;5083061;28;20224;-69
2021/06/12 04:10:09;;;;;;;7.93;6.33;;;;;;;12.87;95.39;95883.09;5073565;28;20325;-69
2021/06/12 04:12:38;;;;;;;5.50;5.20;;;;;;;12.82;95.59;95886.31;5075820;28;20211;-69
2021/06/12 04:15:07;;;;;;;5.37;4.97;;;;;;;12.86;95.81;95886.75;5064653;28;20222;-69
2021/06/12 04:17:34;;;;;;;5.30;5.00;;;;;;;12.87;95.72;95880.44;5069758;28;20304;-69
2021/06/12 04:20:04;;;;;;;7.57;6.97;;;;;;;12.88;95.84;95880.25;5081631;28;20309;-69
2021/06/12 04:22:31;;;;;;;5.93;5.53;;;;;;;12.90;95.65;95878.25;5067849;28;20214;-69
2021/06/12 04:24:59;;;;;;;4.80;4.60;;;;;;;12.90;95.91;95877.44;5072601;28;20249;-68
2021/06/12 04:27:28;;;;;;;5.43;4.97;;;;;;;12.95;95.81;95890.91;5082724;28;20231;-69
2021/06/12 04:29:56;;;;;;;5.33;5.03;;;;;;;12.93;95.79;95883.16;5079669;28;20300;-69
2021/06/12 04:32:23;;;;;;;4.87;4.57;;;;;;;12.93;96.18;95883.16;5072783;28;20733;-69
2021/06/12 04:34:51;;;;;;;5.17;4.90;;;;;;;12.95;96.13;95881.13;5077058;28;20229;-69
2021/06/12 04:37:18;;;;;;;5.97;5.67;;;;;;;12.95;96.35;95890.91;5076778;28;20229;-69
2021/06/12 04:39:47;;;;;;;5.00;4.70;;;;;;;12.98;96.43;95887.84;5077498;28;20214;-68
2021/06/12 04:42:15;;;;;;;6.50;6.10;;;;;;;13.02;96.19;95886.47;5079820;28;20222;-68
2021/06/12 04:44:44;;;;;;;5.00;4.60;;;;;;;13.04;96.21;95889.75;5078321;28;20901;-69
2021/06/12 04:47:11;;;;;;;6.30;5.70;;;;;;;13.02;96.44;95892.59;5080056;28;20283;-69
2021/06/12 04:49:39;;;;;;;6.00;5.60;;;;;;;13.01;96.83;95893.59;5081599;28;20758;-69
2021/06/12 04:52:07;;;;;;;5.63;5.23;;;;;;;13.06;96.59;95893.81;5081156;28;20228;-69
2021/06/12 04:54:34;;;;;;;4.67;4.43;;;;;;;13.06;96.37;95888.53;5077352;28;20239;-69
2021/06/12 04:57:01;;;;;;;4.63;4.37;;;;;;;13.07;96.53;95884.88;5062435;28;20252;-69
2021/06/12 04:59:29;;;;;;;5.80;5.30;;;;;;;13.11;96.47;95887.97;5068351;28;20309;-69
2021/06/12 05:01:58;;;;;;;5.00;4.60;;;;;;;13.16;96.30;95888.19;5081560;28;20211;-69
2021/06/12 05:04:26;;;;;;;8.13;6.00;;;;;;;13.19;96.27;95890.50;5074216;28;20312;-69
2021/06/12 05:06:54;;;;;;;5.50;5.10;;;;;;;13.23;96.67;95894.38;5077299;28;20306;-69
2021/06/12 05:09:23;;;;;;;5.93;5.63;;;;;;;13.32;96.63;95890.56;5072415;28;20257;-69
2021/06/12 05:11:50;;;;;;;4.83;4.53;;;;;;;13.39;96.64;95893.25;5077518;28;20222;-69
2021/06/12 05:14:19;;;;;;;6.70;6.30;;;;;;;13.49;96.55;95906.97;5082279;28;20721;-69
2021/06/12 05:16:46;;;;;;;6.70;6.20;;;;;;;13.62;96.40;95900.91;5075763;28;20225;-69
2021/06/12 05:19:15;;;;;;;6.00;5.43;;;;;;;13.73;96.21;95903.03;5063275;28;20241;-68
2021/06/12 05:21:45;;;;;;;5.67;5.27;;;;;;;13.89;96.04;95910.63;5073601;28;20259;-69
2021/06/12 05:24:13;;;;;;;5.27;4.97;;;;;;;14.06;95.73;95904.97;5069602;28;20229;-69
2021/06/12 05:26:41;;;;;;;5.53;5.13;;;;;;;14.28;95.29;95898.50;5081271;28;20232;-69
2021/06/12 05:29:09;;;;;;;4.97;4.67;;;;;;;14.47;94.71;95900.41;5081301;28;20248;-69
2021/06/12 05:31:37;;;;;;;5.33;5.03;;;;;;;14.73;94.19;95898.81;5077337;28;20331;-69
2021/06/12 05:34:04;;;;;;;4.70;4.30;;;;;;;14.98;92.85;95897.16;5074807;28;20304;-69
2021/06/12 05:36:33;;;;;;;4.67;4.37;;;;;;;15.24;91.16;95898.97;5081491;28;20312;-69
2021/06/12 05:39:01;;;;;;;4.63;4.43;;;;;;;15.46;90.93;95899.56;5072068;28;20313;-69
2021/06/12 05:41:30;;;;;;;5.17;4.97;;;;;;;15.68;90.12;95899.31;5079758;28;20217;-69
2021/06/12 05:43:58;;;;;;;5.43;4.93;;;;;;;15.84;88.50;95904.19;5087559;28;20232;-69
2021/06/12 05:46:25;;;;;;;4.93;4.60;;;;;;;15.99;88.45;95896.75;5081552;28;20233;-69
2021/06/12 05:48:53;;;;;;;4.83;4.57;;;;;;;16.14;87.32;95902.63;5077760;28;20233;-69
2021/06/12 05:51:21;;;;;;;5.50;5.20;;;;;;;16.32;85.86;95906.41;5084352;28;20245;-69
2021/06/12 05:53:50;;;;;;;5.13;4.83;;;;;;;16.50;85.65;95899.34;5070252;28;20218;-69
2021/06/12 05:56:17;;;;;;;4.67;4.37;;;;;;;16.73;84.78;95900.63;5083204;28;20724;-69
2021/06/12 05:58:44;;;;;;;4.20;4.00;;;;;;;16.91;84.63;95897.22;5078311;28;20580;-69
2021/06/12 06:01:31;;;;;;;4.73;4.43;;;;;;;17.10;84.10;95898.09;5083147;28;21017;-69
2021/06/12 06:04:19;;;;;;;6.47;6.03;;;;;;;17.32;83.44;95897.47;5069640;28;20613;-69
2021/06/12 06:06:47;;;;;;;5.63;5.23;;;;;;;17.52;82.85;95896.47;5076196;28;20222;-68
2021/06/12 06:09:16;;;;;;;5.60;5.30;;;;;;;17.65;81.98;95896.34;5072809;28;20876;-69
2021/06/12 06:11:44;;;;;;;15.73;7.87;;;;;;;17.75;83.97;95899.34;5084788;28;20216;-69
2021/06/12 06:14:12;;;;;;;5.03;4.33;;;;;;;17.88;82.99;95907.19;5082185;28;20263;-69
2021/06/12 06:16:39;;;;;;;5.23;5.03;;;;;;;18.02;81.41;95899.84;5084125;28;20227;-69
2021/06/12 06:19:07;;;;;;;6.17;5.57;;;;;;;18.15;80.85;95896.19;5078794;28;20213;-69
2021/06/12 06:21:34;;;;;;;7.20;5.20;;;;;;;18.27;80.66;95901.56;5082231;28;20316;-69
2021/06/12 06:24:01;;;;;;;5.47;5.17;;;;;;;18.35;80.37;95902.06;5050471;27;20225;-69
2021/06/12 06:26:30;;;;;;;5.60;5.17;;;;;;;18.50;80.40;95895.50;5096437;27;20279;-69
2021/06/12 06:28:58;;;;;;;4.97;4.57;;;;;;;18.62;80.08;95886.47;5082779;28;20312;-69
2021/06/12 06:31:26;;;;;;;5.67;5.37;;;;;;;18.77;80.69;95894.09;5085896;27;20636;-69
2021/06/12 06:33:54;;;;;;;5.03;4.67;;;;;;;18.92;80.34;95896.31;5084007;28;20226;-69
2021/06/12 06:36:22;;;;;;;5.97;5.67;;;;;;;19.10;80.22;95892.75;5081115;28;20245;-69
2021/06/12 06:38:49;;;;;;;5.03;4.73;;;;;;;19.22;80.30;95890.91;5066901;28;20296;-70
2021/06/12 06:41:18;;;;;;;4.10;3.90;;;;;;;19.30;79.70;95882.53;5078453;28;20259;-70
2021/06/12 06:43:46;;;;;;;4.77;4.47;;;;;;;19.32;78.47;95886.59;5082378;28;20267;-69
2021/06/12 06:46:14;;;;;;;4.90;4.57;;;;;;;19.34;79.51;95889.03;5076769;28;20718;-69
2021/06/12 06:48:41;;;;;;;5.30;5.00;;;;;;;19.47;80.39;95883.44;5070056;28;20255;-69
2021/06/12 06:51:08;;;;;;;5.23;4.93;;;;;;;19.66;79.17;95891.38;5073082;28;20228;-69
2021/06/12 06:53:36;;;;;;;4.93;4.63;;;;;;;19.85;77.61;95884.84;5079266;28;20327;-69
2021/06/12 06:56:06;;;;;;;5.30;5.07;;;;;;;20.01;78.51;95888.63;5080711;28;20305;-70
2021/06/12 06:58:34;;;;;;;5.40;5.13;;;;;;;20.09;77.79;95880.22;5068800;28;20271;-69
2021/06/12 07:01:05;;;;;;;6.13;5.83;;;;;;;20.26;78.30;95872.22;5073329;28;20300;-70
2021/06/12 07:03:33;;;;;;;5.07;4.77;;;;;;;20.41;77.09;95884.06;5074010;28;20612;-69
2021/06/12 07:06:00;;;;;;;4.40;4.20;;;;;;;20.59;74.95;95880.41;5078267;28;20244;-69
2021/06/12 07:08:29;;;;;;;4.30;4.10;;;;;;;20.69;75.76;95880.56;5074879;28;20217;-70
2021/06/12 07:10:56;;;;;;;4.13;3.90;;;;;;;20.98;75.32;95884.00;5066306;28;20789;-69
2021/06/12 07:13:25;;;;;;;4.73;4.33;;;;;;;21.05;74.02;95883.84;5078311;28;20228;-69
2021/06/12 07:15:52;;;;;;;3.87;3.67;;;;;;;21.22;74.87;95873.13;5081188;28;20221;-70
2021/06/12 07:18:21;;;;;;;4.13;3.93;;;;;;;21.46;73.22;95874.56;5073364;28;20261;-67
2021/06/12 07:20:49;;;;;;;4.73;4.43;;;;;;;21.68;71.26;95871.94;5065711;28;20241;-67
2021/06/12 07:23:16;;;;;;;4.33;4.13;;;;;;;21.81;70.07;95871.56;5066503;28;20313;-67
2021/06/12 07:25:45;;;;;;;4.63;4.43;;;;;;;21.86;67.92;95881.56;5072774;28;20229;-67
2021/06/12 07:28:13;;;;;;;4.97;4.67;;;;;;;22.00;69.29;95876.63;5081709;28;20309;-67
2021/06/12 07:30:41;;;;;;;4.47;4.23;;;;;;;22.12;69.90;95875.44;5071139;28;20257;-67
2021/06/12 07:33:11;;;;;;;4.60;4.40;;;;;;;22.20;69.74;95884.13;5079132;28;20218;-67
2021/06/12 07:35:41;;;;;;;4.23;3.93;;;;;;;22.14;67.89;95875.22;5070873;28;20722;-68
2021/06/12 07:38:08;;;;;;;4.73;4.30;;;;;;;22.21;67.86;95873.13;5077445;28;20260;-67
2021/06/12 07:40:36;;;;;;;5.07;4.77;;;;;;;22.28;68.10;95881.81;5065124;28;20241;-67
2021/06/12 07:43:05;;;;;;;6.37;5.30;;;;;;;21.97;68.55;95874.44;5063829;28;20241;-67
2021/06/12 07:45:32;;;;;;;4.90;4.70;;;;;;;22.30;68.92;95882.38;5075897;28;20306;-67
2021/06/12 07:48:00;;;;;;;5.00;4.80;;;;;;;22.13;66.39;95878.97;5076001;28;20229;-67
2021/06/12 07:50:28;;;;;;;5.07;4.57;;;;;;;22.28;66.89;95876.44;5082533;28;20308;-67
2021/06/12 07:52:56;;;;;;;15.00;5.27;;;;;;;22.49;67.38;95882.03;5072185;28;20261;-67
2021/06/12 07:55:24;;;;;;;5.27;5.07;;;;;;;22.68;65.08;95870.69;5078131;28;20244;-67
2021/06/12 07:57:52;;;;;;;5.27;5.03;;;;;;;23.13;65.28;95879.41;5077853;28;20768;-67
2021/06/12 08:00:20;;;;;;;4.70;4.40;;;;;;;23.40;64.95;95879.34;5071968;28;20572;-67
2021/06/12 08:02:48;;;;;;;4.47;4.17;;;;;;;23.51;64.15;95883.75;5071413;28;21008;-68
2021/06/12 08:05:15;;;;;;;4.80;4.60;;;;;;;23.60;65.14;95884.09;5074761;28;20221;-67
2021/06/12 08:07:43;;;;;;;4.50;4.13;;;;;;;23.28;65.36;95884.94;5068902;28;20308;-67
2021/06/12 08:10:11;;;;;;;4.95;4.55;;;;;;;23.56;64.38;95876.50;5075366;28;20244;-67
2021/06/12 08:12:40;;;;;;;4.38;4.15;;;;;;;23.42;63.20;95878.03;5083532;28;20240;-67
2021/06/12 08:15:09;;;;;;;5.05;4.80;;;;;;;23.74;63.75;95872.59;5083752;28;20426;-68
2021/06/12 08:17:37;;;;;;;5.50;5.13;;;;;;;23.75;62.05;95873.38;5079499;28;20578;-68
2021/06/12 08:20:06;;;;;;;5.60;5.35;;;;;;;23.68;64.60;95878.19;5073904;28;20274;-68
2021/06/12 08:22:33;;;;;;;5.22;4.95;;;;;;;24.00;61.98;95876.22;5080425;28;20304;-67
2021/06/12 08:25:01;;;;;;;4.65;4.45;;;;;;;24.38;60.13;95874.22;5070705;28;20297;-67
2021/06/12 08:27:30;;;;;;;6.72;6.22;;;;;;;24.71;59.68;95869.44;5076044;28;20654;-70
2021/06/12 08:29:58;;;;;;;5.57;5.28;;;;;;;24.88;59.65;95876.22;5095013;28;20231;-68
2021/06/12 08:32:25;;;;;;;4.88;4.68;;;;;;;24.57;60.55;95874.53;5081486;28;20886;-68
2021/06/12 08:34:53;;;;;;;4.97;4.68;;;;;;;24.41;59.42;95865.59;5074541;28;20221;-68
2021/06/12 08:37:21;;;;;;;4.32;4.13;;;;;;;24.64;61.93;95865.09;5067645;28;20228;-68
2021/06/12 08:39:50;;;;;;;5.15;4.85;;;;;;;24.85;60.41;95871.34;5079763;28;20462;-69
2021/06/12 08:42:19;;;;;;;4.60;4.40;;;;;;;24.30;59.24;95880.09;5081492;28;20222;-68
2021/06/12 08:44:49;;;;;;;3.80;3.60;;;;;;;24.24;62.13;95870.38;5079175;28;20286;-68
2021/06/12 08:47:19;;;;;;;4.18;3.97;;;;;;;24.50;64.24;95874.78;5072159;28;20305;-69
2021/06/12 08:49:47;;;;;;;4.43;4.22;;;;;;;24.68;61.87;95868.88;5069985;28;20371;-68
2021/06/12 08:52:15;;;;;;;4.93;4.57;;;;;;;24.56;62.65;95873.72;5081200;28;20221;-68
2021/06/12 08:54:43;;;;;;;3.90;3.80;;;;;;;24.92;60.95;95877.28;5070722;28;20221;-69
2021/06/12 08:57:10;;;;;;;5.15;4.85;;;;;;;24.51;61.13;95876.44;5067626;28;20222;-69
2021/06/12 08:59:39;;;;;;;4.78;4.43;;;;;;;24.84;58.97;95869.72;5068738;28;20221;-68
2021/06/12 09:02:08;;;;;;;3.80;3.70;;;;;;;24.89;57.39;95877.03;5088601;28;20880;-68
2021/06/12 09:04:37;;;;;;;4.03;3.83;;;;;;;24.90;59.50;95873.25;5069440;28;20229;-68
2021/06/12 09:07:19;;;;;;;4.78;4.47;;;;;;;25.42;57.48;95869.47;5078945;28;20702;-68
2021/06/12 09:09:48;;;;;;;3.95;3.75;;;;;;;25.52;56.44;95864.06;5073066;28;20352;-68
2021/06/12 09:12:16;;;;;;;3.70;3.55;;;;;;;25.45;54.94;95869.75;5087015;28;20221;-68
2021/06/12 09:15:11;;;;;;;4.28;4.07;;;;;;;25.91;57.95;95871.56;5075882;28;20671;-69
2021/06/12 09:17:41;;;;;;;4.30;4.10;;;;;;;26.22;52.64;95874.94;5076848;28;20731;-69
2021/06/12 09:20:11;;;;;;;4.75;3.80;;;;;;;26.16;55.89;95874.16;5077171;28;20233;-68
2021/06/12 09:22:38;;;;;;;3.30;3.15;;;;;;;26.32;55.10;95866.78;5072751;28;20230;-69
2021/06/12 09:25:06;;;;;;;4.20;4.00;;;;;;;26.05;56.38;95865.25;5078495;28;20222;-69
2021/06/12 09:27:34;;;;;;;3.97;3.78;;;;;;;25.99;56.27;95868.28;5080778;28;20214;-69
2021/06/12 09:30:05;;;;;;;4.15;3.95;;;;;;;26.00;56.10;95865.31;5076519;28;20293;-68
2021/06/12 09:32:43;;;;;;;4.28;4.07;;;;;;;25.72;55.15;95866.75;5075340;28;20274;-69
2021/06/12 09:35:12;;;;;;;3.92;3.72;;;;;;;25.85;56.90;95867.25;5093651;28;20225;-68
2021/06/12 09:37:40;;;;;;;3.17;3.08;;;;;;;26.43;54.54;95867.59;5072636;28;20257;-68
2021/06/12 09:40:13;;;;;;;3.65;3.45;;;;;;;26.46;54.68;95862.41;5076887;28;20222;-69
2021/06/12 09:42:43;;;;;;;4.85;4.55;;;;;;;26.42;55.61;95864.03;5079379;28;20317;-68
2021/06/12 09:45:12;;;;;;;4.22;3.95;;;;;;;26.52;56.46;95861.31;5075857;28;20290;-69
2021/06/12 09:47:40;;;;;;;3.30;3.10;;;;;;;26.18;54.79;95866.59;5075984;28;20622;-69
2021/06/12 09:50:10;;;;;;;3.92;3.72;;;;;;;26.64;55.94;95861.75;5075579;28;20295;-69
2021/06/12 09:52:47;;;;;;;7.38;5.40;;;;;;;26.58;54.76;95870.19;5075549;28;20221;-69
2021/06/12 09:55:25;;;;;;;5.10;4.70;;;;;;;26.60;57.41;95862.59;5076665;28;20305;-68
2021/06/12 09:57:54;;;;;;;4.10;3.80;;;;;;;26.71;57.37;95868.78;5082570;28;20298;-69
2021/06/12 10:00:32;;;;;;;3.75;3.55;;;;;;;26.31;59.27;95860.56;5083947;28;20627;-67
2021/06/12 10:02:59;;;;;;;4.18;3.95;;;;;;;26.63;57.98;95864.75;5081099;28;20234;-68
2021/06/12 10:05:27;;;;;;;6.97;4.38;;;;;;;26.05;56.84;95865.25;5079191;28;20225;-69
2021/06/12 10:07:56;;;;;;;5.88;5.47;;;;;;;26.18;57.33;95865.78;5076977;28;20314;-68
2021/06/12 10:10:25;;;;;;;4.47;4.28;;;;;;;26.02;53.60;95867.72;5078283;28;20741;-68
2021/06/12 10:12:54;;;;;;;4.35;4.15;;;;;;;26.58;55.37;95872.88;5084271;28;20242;-68
2021/06/12 10:15:22;;;;;;;4.65;4.40;;;;;;;26.97;53.70;95872.09;5069894;28;20853;-68
2021/06/12 10:17:51;;;;;;;5.72;4.97;;;;;;;26.59;56.68;95877.22;5062069;28;20296;-68
2021/06/12 10:20:22;;;;;;;3.92;3.83;;;;;;;26.42;52.74;95865.94;5076337;28;20225;-68
2021/06/12 10:22:51;;;;;;;4.32;4.05;;;;;;;26.33;54.47;95871.94;5077658;28;20224;-68
2021/06/12 10:25:22;;;;;;;4.05;3.85;;;;;;;26.74;54.14;95869.00;5080204;28;20229;-68
2021/06/12 10:27:50;;;;;;;4.55;4.13;;;;;;;26.43;51.48;95862.16;5076315;28;20767;-68
2021/06/12 10:30:20;;;;;;;4.40;4.20;;;;;;;25.96;55.19;95871.53;5079543;28;20311;-68
2021/06/12 10:32:50;;;;;;;4.63;4.20;;;;;;;25.39;54.80;95875.41;5083295;28;20285;-68
2021/06/12 10:35:19;;;;;;;3.63;3.42;;;;;;;25.64;54.26;95861.88;5073319;28;20222;-68
2021/06/12 10:37:58;;;;;;;5.43;4.40;;;;;;;26.21;53.06;95854.38;5075621;28;20749;-68
2021/06/12 10:40:43;;;;;;;3.90;3.78;;;;;;;26.60;55.18;95857.97;5074842;28;20245;-68
2021/06/12 10:43:13;;;;;;;4.13;3.83;;;;;;;26.04;55.38;95854.72;5065457;28;20229;-68
2021/06/12 10:45:43;;;;;;;5.63;5.15;;;;;;;26.03;52.97;95863.94;5084774;28;20222;-68
2021/06/12 10:48:41;;;;;;;3.85;3.75;;;;;;;25.97;49.60;95852.34;5081433;28;20226;-68
2021/06/12 10:51:09;;;;;;;4.10;3.90;;;;;;;26.05;50.60;95865.25;5083261;28;20242;-68
2021/06/12 10:53:38;;;;;;;5.15;4.85;;;;;;;26.19;52.87;95846.56;5070566;28;20218;-68
2021/06/12 10:56:08;;;;;;;4.65;4.07;;;;;;;26.35;51.01;95845.41;5070464;28;20307;-68
2021/06/12 10:58:48;;;;;;;3.72;3.60;;;;;;;26.94;52.36;95833.66;5074917;28;20255;-67
2021/06/12 11:01:23;;;;;;;3.95;3.75;;;;;;;26.75;53.08;95832.72;5071905;28;20217;-68
2021/06/12 11:04:05;;;;;;;4.93;4.72;;;;;;;26.35;49.40;95822.94;5078189;28;20227;-68
2021/06/12 11:06:42;;;;;;;4.13;3.92;;;;;;;26.68;52.05;95824.09;5092033;28;20742;-68
2021/06/12 11:09:40;;;;;;;3.83;3.70;;;;;;;26.62;53.63;95819.81;5074537;28;20364;-68
2021/06/12 11:12:35;;;;;;;4.75;4.30;;;;;;;26.31;52.67;95838.09;5066998;28;20264;-68
2021/06/12 11:15:11;;;;;;;4.38;4.18;;;;;;;26.15;53.43;95828.44;5076818;28;20222;-68
2021/06/12 11:17:40;;;;;;;3.75;3.55;;;;;;;26.25;53.61;95829.22;5080859;28;20236;-68
2021/06/12 11:20:35;;;;;;;4.07;3.88;;;;;;;26.87;51.07;95819.63;5080579;28;20313;-68
2021/06/12 11:23:05;;;;;;;4.70;4.50;;;;;;;26.32;53.45;95824.28;5047160;28;20300;-68
2021/06/12 11:25:52;;;;;;;4.00;3.83;;;;;;;26.16;54.51;95819.25;5074809;28;20680;-68
2021/06/12 11:28:30;;;;;;;4.22;3.83;;;;;;;25.68;53.05;95816.16;5079835;28;20251;-68
2021/06/12 11:31:29;;;;;;;3.67;3.58;;;;;;;25.88;54.61;95818.00;5080823;28;20217;-68
2021/06/12 11:34:11;;;;;;;4.10;3.78;;;;;;;25.36;55.93;95821.94;5079615;28;20217;-68
2021/06/12 11:36:40;;;;;;;4.07;3.75;;;;;;;25.51;55.88;95819.19;5079684;28;20229;-68
2021/06/12 11:39:08;;;;;;;4.28;3.85;;;;;;;25.62;56.12;95809.19;5081592;28;20309;-68
2021/06/12 11:41:36;;;;;;;4.00;3.80;;;;;;;25.35;57.14;95820.31;5084428;28;20301;-68
2021/06/12 11:44:05;;;;;;;5.13;4.75;;;;;;;25.55;57.08;95814.84;5068459;28;20252;-68
2021/06/12 11:46:35;;;;;;;5.47;4.07;;;;;;;25.88;55.27;95808.03;5079462;28;20213;-68
2021/06/12 11:49:06;;;;;;;4.22;4.00;;;;;;;26.33;53.59;95812.41;5084229;28;20226;-68